sensor_id;sensor_type;location;lat;lon;timestamp;temperature;humidity
21115;DHT22;10715;48.546;9.896;2024-02-26T00:02:16;1.40;99.90
21115;DHT22;10715;48.546;9.896;2024-02-26T00:04:42;1.40;99.90
21115;DHT22;10715;48.546;9.896;2024-02-26T00:07:07;1.40;99.90
21115;DHT22;10715;48.546;9.896;2024-02-26T00:09:33;1.40;99.90
21115;DHT22;10715;48.546;9.896;2024-02-26T00:12:02;1.40;99.90
21115;DHT22;10715;48.546;9.896;2024-02-26T00:14:29;1.40;99.90
21115;DHT22;10715;48.546;9.896;2024-02-26T00:16:55;1.50;99.90
21115;DHT22;10715;48.546;9.896;2024-02-26T00:19:21;1.50;99.90
21115;DHT22;10715;48.546;9.896;2024-02-26T00:21:47;1.50;99.90
21115;DHT22;10715;48.546;9.896;2024-02-26T00:24:12;1.50;99.90
21115;DHT22;10715;48.546;9.896;2024-02-26T00:26:38;1.50;99.90
21115;DHT22;10715;48.546;9.896;2024-02-26T00:29:04;1.50;99.90
21115;DHT22;10715;48.546;9.896;2024-02-26T00:31:30;1.50;99.90
21115;DHT22;10715;48.546;9.896;2024-02-26T00:33:56;1.60;99.90
21115;DHT22;10715;48.546;9.896;2024-02-26T00:36:22;1.60;99.90
21115;DHT22;10715;48.546;9.896;2024-02-26T00:38:47;1.60;99.90
21115;DHT22;10715;48.546;9.896;2024-02-26T00:41:20;1.60;99.90
21115;DHT22;10715;48.546;9.896;2024-02-26T00:43:46;1.60;99.90
21115;DHT22;10715;48.546;9.896;2024-02-26T00:46:12;1.60;99.90
21115;DHT22;10715;48.546;9.896;2024-02-26T00:48:38;1.70;99.90
21115;DHT22;10715;48.546;9.896;2024-02-26T00:51:04;1.70;99.90
21115;DHT22;10715;48.546;9.896;2024-02-26T00:53:31;1.70;99.90
21115;DHT22;10715;48.546;9.896;2024-02-26T00:55:57;1.70;99.90
21115;DHT22;10715;48.546;9.896;2024-02-26T00:58:27;1.70;99.90
21115;DHT22;10715;48.546;9.896;2024-02-26T01:00:53;1.80;99.90
21115;DHT22;10715;48.546;9.896;2024-02-26T01:03:19;1.70;99.90
21115;DHT22;10715;48.546;9.896;2024-02-26T01:05:45;1.70;99.90
21115;DHT22;10715;48.546;9.896;2024-02-26T01:08:13;1.70;99.90
21115;DHT22;10715;48.546;9.896;2024-02-26T01:10:39;1.70;99.90
21115;DHT22;10715;48.546;9.896;2024-02-26T01:13:05;1.80;99.90
21115;DHT22;10715;48.546;9.896;2024-02-26T01:15:33;1.80;99.90
21115;DHT22;10715;48.546;9.896;2024-02-26T01:17:59;1.80;99.90
21115;DHT22;10715;48.546;9.896;2024-02-26T01:20:24;1.80;99.90
21115;DHT22;10715;48.546;9.896;2024-02-26T01:22:50;1.80;99.90
21115;DHT22;10715;48.546;9.896;2024-02-26T01:25:16;1.80;99.90
21115;DHT22;10715;48.546;9.896;2024-02-26T01:27:42;1.80;99.90
21115;DHT22;10715;48.546;9.896;2024-02-26T01:30:09;1.80;99.90
21115;DHT22;10715;48.546;9.896;2024-02-26T01:32:35;1.90;99.90
21115;DHT22;10715;48.546;9.896;2024-02-26T01:35:04;1.90;99.90
21115;DHT22;10715;48.546;9.896;2024-02-26T01:37:30;1.90;99.90
21115;DHT22;10715;48.546;9.896;2024-02-26T01:39:56;1.90;99.90
21115;DHT22;10715;48.546;9.896;2024-02-26T01:42:22;1.90;99.90
21115;DHT22;10715;48.546;9.896;2024-02-26T01:44:47;1.90;99.90
21115;DHT22;10715;48.546;9.896;2024-02-26T01:47:13;1.90;99.90
21115;DHT22;10715;48.546;9.896;2024-02-26T01:49:40;1.90;99.90
21115;DHT22;10715;48.546;9.896;2024-02-26T01:52:07;1.90;99.90
21115;DHT22;10715;48.546;9.896;2024-02-26T01:54:35;1.90;99.90
21115;DHT22;10715;48.546;9.896;2024-02-26T01:57:03;1.90;99.90
21115;DHT22;10715;48.546;9.896;2024-02-26T01:59:30;1.80;99.90
21115;DHT22;10715;48.546;9.896;2024-02-26T02:01:58;1.90;99.90
21115;DHT22;10715;48.546;9.896;2024-02-26T02:04:27;1.80;99.90
21115;DHT22;10715;48.546;9.896;2024-02-26T02:06:53;1.80;99.90
21115;DHT22;10715;48.546;9.896;2024-02-26T02:09:20;1.80;99.90
21115;DHT22;10715;48.546;9.896;2024-02-26T02:11:46;1.80;99.90
21115;DHT22;10715;48.546;9.896;2024-02-26T02:14:14;1.80;99.90
21115;DHT22;10715;48.546;9.896;2024-02-26T02:16:40;1.80;99.90
21115;DHT22;10715;48.546;9.896;2024-02-26T02:19:05;1.80;99.90
21115;DHT22;10715;48.546;9.896;2024-02-26T02:21:31;1.80;99.90
21115;DHT22;10715;48.546;9.896;2024-02-26T02:23:57;1.80;99.90
21115;DHT22;10715;48.546;9.896;2024-02-26T02:26:23;1.80;99.90
21115;DHT22;10715;48.546;9.896;2024-02-26T02:28:49;1.90;99.90
21115;DHT22;10715;48.546;9.896;2024-02-26T02:31:15;1.90;99.90
21115;DHT22;10715;48.546;9.896;2024-02-26T02:33:41;1.90;99.90
21115;DHT22;10715;48.546;9.896;2024-02-26T02:36:07;1.90;99.90
21115;DHT22;10715;48.546;9.896;2024-02-26T02:38:36;2.00;99.90
21115;DHT22;10715;48.546;9.896;2024-02-26T02:41:02;2.00;99.90
21115;DHT22;10715;48.546;9.896;2024-02-26T02:43:28;2.00;99.90
21115;DHT22;10715;48.546;9.896;2024-02-26T02:45:54;2.00;99.90
21115;DHT22;10715;48.546;9.896;2024-02-26T02:48:19;2.00;99.90
21115;DHT22;10715;48.546;9.896;2024-02-26T02:50:45;2.00;99.90
21115;DHT22;10715;48.546;9.896;2024-02-26T02:53:11;2.00;99.90
21115;DHT22;10715;48.546;9.896;2024-02-26T02:55:37;2.00;99.90
21115;DHT22;10715;48.546;9.896;2024-02-26T02:58:02;2.00;99.90
21115;DHT22;10715;48.546;9.896;2024-02-26T03:00:28;2.00;99.90
21115;DHT22;10715;48.546;9.896;2024-02-26T03:02:54;2.00;99.90
21115;DHT22;10715;48.546;9.896;2024-02-26T03:05:19;2.00;99.90
21115;DHT22;10715;48.546;9.896;2024-02-26T03:07:45;2.10;99.90
21115;DHT22;10715;48.546;9.896;2024-02-26T03:10:11;2.10;99.90
21115;DHT22;10715;48.546;9.896;2024-02-26T03:12:37;2.10;99.90
21115;DHT22;10715;48.546;9.896;2024-02-26T03:15:03;2.10;99.90
21115;DHT22;10715;48.546;9.896;2024-02-26T03:17:29;2.10;99.90
21115;DHT22;10715;48.546;9.896;2024-02-26T03:22:29;2.20;99.90
21115;DHT22;10715;48.546;9.896;2024-02-26T03:24:55;2.20;99.90
21115;DHT22;10715;48.546;9.896;2024-02-26T03:27:20;2.20;99.90
21115;DHT22;10715;48.546;9.896;2024-02-26T03:29:46;2.20;99.90
21115;DHT22;10715;48.546;9.896;2024-02-26T03:32:13;2.20;99.90
21115;DHT22;10715;48.546;9.896;2024-02-26T03:34:39;2.20;99.90
21115;DHT22;10715;48.546;9.896;2024-02-26T03:37:05;2.20;99.90
21115;DHT22;10715;48.546;9.896;2024-02-26T03:39:32;2.20;99.90
21115;DHT22;10715;48.546;9.896;2024-02-26T03:41:58;2.20;99.90
21115;DHT22;10715;48.546;9.896;2024-02-26T03:44:24;2.20;99.90
21115;DHT22;10715;48.546;9.896;2024-02-26T03:46:50;2.20;99.90
21115;DHT22;10715;48.546;9.896;2024-02-26T03:49:16;2.20;99.90
21115;DHT22;10715;48.546;9.896;2024-02-26T03:51:42;2.30;99.90
21115;DHT22;10715;48.546;9.896;2024-02-26T03:54:07;2.30;99.90
21115;DHT22;10715;48.546;9.896;2024-02-26T03:56:33;2.30;99.90
21115;DHT22;10715;48.546;9.896;2024-02-26T03:58:59;2.40;99.90
21115;DHT22;10715;48.546;9.896;2024-02-26T04:01:27;2.40;99.90
21115;DHT22;10715;48.546;9.896;2024-02-26T04:03:52;2.40;99.90
21115;DHT22;10715;48.546;9.896;2024-02-26T04:06:18;2.40;99.90
21115;DHT22;10715;48.546;9.896;2024-02-26T04:08:46;2.40;99.90
21115;DHT22;10715;48.546;9.896;2024-02-26T04:11:12;2.40;99.90
21115;DHT22;10715;48.546;9.896;2024-02-26T04:13:38;2.40;99.90
21115;DHT22;10715;48.546;9.896;2024-02-26T04:16:05;2.40;99.90
21115;DHT22;10715;48.546;9.896;2024-02-26T04:18:32;2.40;99.90
21115;DHT22;10715;48.546;9.896;2024-02-26T04:20:57;2.40;99.90
21115;DHT22;10715;48.546;9.896;2024-02-26T04:23:23;2.50;99.90
21115;DHT22;10715;48.546;9.896;2024-02-26T04:25:49;2.50;99.90
21115;DHT22;10715;48.546;9.896;2024-02-26T04:28:15;2.50;99.90
21115;DHT22;10715;48.546;9.896;2024-02-26T04:30:41;2.50;99.90
21115;DHT22;10715;48.546;9.896;2024-02-26T04:33:07;2.50;99.90
21115;DHT22;10715;48.546;9.896;2024-02-26T04:35:32;2.50;99.90
21115;DHT22;10715;48.546;9.896;2024-02-26T04:37:58;2.50;99.90
21115;DHT22;10715;48.546;9.896;2024-02-26T04:40:24;2.50;99.90
21115;DHT22;10715;48.546;9.896;2024-02-26T04:42:50;2.60;99.90
21115;DHT22;10715;48.546;9.896;2024-02-26T04:45:15;2.60;99.90
21115;DHT22;10715;48.546;9.896;2024-02-26T04:47:41;2.60;99.90
21115;DHT22;10715;48.546;9.896;2024-02-26T04:50:07;2.60;99.90
21115;DHT22;10715;48.546;9.896;2024-02-26T04:52:33;2.60;99.90
21115;DHT22;10715;48.546;9.896;2024-02-26T04:54:59;2.60;99.90
21115;DHT22;10715;48.546;9.896;2024-02-26T04:57:25;2.60;99.90
21115;DHT22;10715;48.546;9.896;2024-02-26T04:59:51;2.60;99.90
21115;DHT22;10715;48.546;9.896;2024-02-26T05:02:17;2.60;99.90
21115;DHT22;10715;48.546;9.896;2024-02-26T05:04:43;2.60;99.90
21115;DHT22;10715;48.546;9.896;2024-02-26T05:07:09;2.60;99.90
21115;DHT22;10715;48.546;9.896;2024-02-26T05:09:34;2.60;99.90
21115;DHT22;10715;48.546;9.896;2024-02-26T05:12:00;2.60;99.90
21115;DHT22;10715;48.546;9.896;2024-02-26T05:14:26;2.60;99.90
21115;DHT22;10715;48.546;9.896;2024-02-26T05:16:52;2.60;99.90
21115;DHT22;10715;48.546;9.896;2024-02-26T05:19:17;2.60;99.90
21115;DHT22;10715;48.546;9.896;2024-02-26T05:21:43;2.60;99.90
21115;DHT22;10715;48.546;9.896;2024-02-26T05:24:10;2.60;99.90
21115;DHT22;10715;48.546;9.896;2024-02-26T05:26:36;2.70;99.90
21115;DHT22;10715;48.546;9.896;2024-02-26T05:29:01;2.70;99.90
21115;DHT22;10715;48.546;9.896;2024-02-26T05:31:28;2.70;99.90
21115;DHT22;10715;48.546;9.896;2024-02-26T05:33:54;2.70;99.90
21115;DHT22;10715;48.546;9.896;2024-02-26T05:36:23;2.70;99.90
21115;DHT22;10715;48.546;9.896;2024-02-26T05:38:49;2.70;99.90
21115;DHT22;10715;48.546;9.896;2024-02-26T05:41:18;2.70;99.90
21115;DHT22;10715;48.546;9.896;2024-02-26T05:43:49;2.70;99.90
21115;DHT22;10715;48.546;9.896;2024-02-26T05:46:19;2.70;99.90
21115;DHT22;10715;48.546;9.896;2024-02-26T05:48:47;2.70;99.90
21115;DHT22;10715;48.546;9.896;2024-02-26T05:51:13;2.60;99.90
21115;DHT22;10715;48.546;9.896;2024-02-26T05:53:40;2.70;99.90
21115;DHT22;10715;48.546;9.896;2024-02-26T05:56:06;2.70;99.90
21115;DHT22;10715;48.546;9.896;2024-02-26T05:58:32;2.70;99.90
21115;DHT22;10715;48.546;9.896;2024-02-26T06:00:58;2.70;99.90
21115;DHT22;10715;48.546;9.896;2024-02-26T06:03:24;2.70;99.90
21115;DHT22;10715;48.546;9.896;2024-02-26T06:05:49;2.70;99.90
21115;DHT22;10715;48.546;9.896;2024-02-26T06:08:15;2.70;99.90
21115;DHT22;10715;48.546;9.896;2024-02-26T06:10:41;2.70;99.90
21115;DHT22;10715;48.546;9.896;2024-02-26T06:13:06;2.70;99.90
21115;DHT22;10715;48.546;9.896;2024-02-26T06:15:32;2.70;99.90
21115;DHT22;10715;48.546;9.896;2024-02-26T06:17:58;2.70;99.90
21115;DHT22;10715;48.546;9.896;2024-02-26T06:20:23;2.70;99.90
21115;DHT22;10715;48.546;9.896;2024-02-26T06:22:49;2.70;99.90
21115;DHT22;10715;48.546;9.896;2024-02-26T06:25:15;2.70;99.90
21115;DHT22;10715;48.546;9.896;2024-02-26T06:27:40;2.70;99.90
21115;DHT22;10715;48.546;9.896;2024-02-26T06:30:07;2.80;99.90
21115;DHT22;10715;48.546;9.896;2024-02-26T06:32:35;2.80;99.90
21115;DHT22;10715;48.546;9.896;2024-02-26T06:35:01;2.80;99.90
21115;DHT22;10715;48.546;9.896;2024-02-26T06:37:26;2.80;99.90
21115;DHT22;10715;48.546;9.896;2024-02-26T06:39:52;2.80;99.90
21115;DHT22;10715;48.546;9.896;2024-02-26T06:42:18;2.80;99.90
21115;DHT22;10715;48.546;9.896;2024-02-26T06:44:44;2.80;99.90
21115;DHT22;10715;48.546;9.896;2024-02-26T06:47:09;2.80;99.90
21115;DHT22;10715;48.546;9.896;2024-02-26T06:49:35;2.80;99.90
21115;DHT22;10715;48.546;9.896;2024-02-26T06:52:01;2.80;99.90
21115;DHT22;10715;48.546;9.896;2024-02-26T06:54:26;2.80;99.90
21115;DHT22;10715;48.546;9.896;2024-02-26T06:56:52;2.80;99.90
21115;DHT22;10715;48.546;9.896;2024-02-26T06:59:18;2.80;99.90
21115;DHT22;10715;48.546;9.896;2024-02-26T07:01:45;2.80;99.90
21115;DHT22;10715;48.546;9.896;2024-02-26T07:04:11;2.80;99.90
21115;DHT22;10715;48.546;9.896;2024-02-26T07:06:37;2.80;99.90
21115;DHT22;10715;48.546;9.896;2024-02-26T07:09:02;2.80;99.90
21115;DHT22;10715;48.546;9.896;2024-02-26T07:11:28;2.80;99.90
21115;DHT22;10715;48.546;9.896;2024-02-26T07:13:54;2.80;99.90
21115;DHT22;10715;48.546;9.896;2024-02-26T07:16:19;2.80;99.90
21115;DHT22;10715;48.546;9.896;2024-02-26T07:18:45;2.80;99.90
21115;DHT22;10715;48.546;9.896;2024-02-26T07:21:12;2.90;99.90
21115;DHT22;10715;48.546;9.896;2024-02-26T07:23:37;2.90;99.90
21115;DHT22;10715;48.546;9.896;2024-02-26T07:26:03;2.90;99.90
21115;DHT22;10715;48.546;9.896;2024-02-26T07:28:29;2.90;99.90
21115;DHT22;10715;48.546;9.896;2024-02-26T07:30:55;2.90;99.90
21115;DHT22;10715;48.546;9.896;2024-02-26T07:33:21;3.00;99.90
21115;DHT22;10715;48.546;9.896;2024-02-26T07:35:47;3.00;99.90
21115;DHT22;10715;48.546;9.896;2024-02-26T07:38:13;3.00;99.90
21115;DHT22;10715;48.546;9.896;2024-02-26T07:40:39;3.00;99.90
21115;DHT22;10715;48.546;9.896;2024-02-26T07:43:05;3.10;99.90
21115;DHT22;10715;48.546;9.896;2024-02-26T07:45:31;3.10;99.90
21115;DHT22;10715;48.546;9.896;2024-02-26T07:47:56;3.10;99.90
21115;DHT22;10715;48.546;9.896;2024-02-26T07:50:22;3.20;99.90
21115;DHT22;10715;48.546;9.896;2024-02-26T07:52:48;3.20;99.90
21115;DHT22;10715;48.546;9.896;2024-02-26T07:55:16;3.20;99.90
21115;DHT22;10715;48.546;9.896;2024-02-26T07:57:42;3.20;99.90
21115;DHT22;10715;48.546;9.896;2024-02-26T08:00:09;3.30;99.90
21115;DHT22;10715;48.546;9.896;2024-02-26T08:02:36;3.30;99.90
21115;DHT22;10715;48.546;9.896;2024-02-26T08:05:02;3.40;99.90
21115;DHT22;10715;48.546;9.896;2024-02-26T08:07:28;3.40;99.90
21115;DHT22;10715;48.546;9.896;2024-02-26T08:09:54;3.50;99.90
21115;DHT22;10715;48.546;9.896;2024-02-26T08:12:19;3.50;99.90
21115;DHT22;10715;48.546;9.896;2024-02-26T08:14:45;3.50;99.90
21115;DHT22;10715;48.546;9.896;2024-02-26T08:17:11;3.60;99.90
21115;DHT22;10715;48.546;9.896;2024-02-26T08:19:37;3.60;99.90
21115;DHT22;10715;48.546;9.896;2024-02-26T08:22:02;3.70;99.90
21115;DHT22;10715;48.546;9.896;2024-02-26T08:24:28;3.70;99.90
21115;DHT22;10715;48.546;9.896;2024-02-26T08:26:54;3.70;99.90
21115;DHT22;10715;48.546;9.896;2024-02-26T08:29:20;3.80;99.90
21115;DHT22;10715;48.546;9.896;2024-02-26T08:31:45;3.80;99.90
21115;DHT22;10715;48.546;9.896;2024-02-26T08:34:14;3.80;99.90
21115;DHT22;10715;48.546;9.896;2024-02-26T08:36:40;3.80;99.90
21115;DHT22;10715;48.546;9.896;2024-02-26T08:39:05;3.80;99.90
21115;DHT22;10715;48.546;9.896;2024-02-26T08:41:32;3.90;99.90
21115;DHT22;10715;48.546;9.896;2024-02-26T08:43:57;3.90;99.90
21115;DHT22;10715;48.546;9.896;2024-02-26T08:46:23;3.90;99.90
21115;DHT22;10715;48.546;9.896;2024-02-26T08:48:49;3.90;99.90
21115;DHT22;10715;48.546;9.896;2024-02-26T08:51:15;3.90;99.90
21115;DHT22;10715;48.546;9.896;2024-02-26T08:53:40;4.00;99.90
21115;DHT22;10715;48.546;9.896;2024-02-26T08:56:06;4.00;99.90
21115;DHT22;10715;48.546;9.896;2024-02-26T08:58:32;4.00;99.90
21115;DHT22;10715;48.546;9.896;2024-02-26T09:00:57;4.00;99.90
21115;DHT22;10715;48.546;9.896;2024-02-26T09:03:23;4.00;99.90
21115;DHT22;10715;48.546;9.896;2024-02-26T09:05:49;4.00;99.90
21115;DHT22;10715;48.546;9.896;2024-02-26T09:08:15;4.00;99.90
21115;DHT22;10715;48.546;9.896;2024-02-26T09:10:42;4.10;99.90
21115;DHT22;10715;48.546;9.896;2024-02-26T09:13:07;4.10;99.90
21115;DHT22;10715;48.546;9.896;2024-02-26T09:15:33;4.10;99.90
21115;DHT22;10715;48.546;9.896;2024-02-26T09:17:59;4.10;99.90
21115;DHT22;10715;48.546;9.896;2024-02-26T09:20:25;4.10;99.90
21115;DHT22;10715;48.546;9.896;2024-02-26T09:22:51;4.10;99.90
21115;DHT22;10715;48.546;9.896;2024-02-26T09:25:17;4.10;99.90
21115;DHT22;10715;48.546;9.896;2024-02-26T09:27:46;4.20;99.90
21115;DHT22;10715;48.546;9.896;2024-02-26T09:30:13;4.20;99.90
21115;DHT22;10715;48.546;9.896;2024-02-26T09:32:39;4.20;99.90
21115;DHT22;10715;48.546;9.896;2024-02-26T09:35:06;4.20;99.90
21115;DHT22;10715;48.546;9.896;2024-02-26T09:37:32;4.30;99.90
21115;DHT22;10715;48.546;9.896;2024-02-26T09:39:59;4.30;99.90
21115;DHT22;10715;48.546;9.896;2024-02-26T09:42:31;4.30;99.90
21115;DHT22;10715;48.546;9.896;2024-02-26T09:45:00;4.40;99.90
21115;DHT22;10715;48.546;9.896;2024-02-26T09:47:28;4.40;99.90
21115;DHT22;10715;48.546;9.896;2024-02-26T09:49:56;4.50;99.90
21115;DHT22;10715;48.546;9.896;2024-02-26T09:52:23;4.50;99.90
21115;DHT22;10715;48.546;9.896;2024-02-26T09:54:49;4.50;99.90
21115;DHT22;10715;48.546;9.896;2024-02-26T09:57:16;4.60;99.90
21115;DHT22;10715;48.546;9.896;2024-02-26T09:59:43;4.60;99.90
21115;DHT22;10715;48.546;9.896;2024-02-26T10:02:12;4.70;99.90
21115;DHT22;10715;48.546;9.896;2024-02-26T10:04:40;4.80;99.90
21115;DHT22;10715;48.546;9.896;2024-02-26T10:07:11;4.80;99.90
21115;DHT22;10715;48.546;9.896;2024-02-26T10:09:38;4.90;99.90
21115;DHT22;10715;48.546;9.896;2024-02-26T10:12:09;5.00;99.90
21115;DHT22;10715;48.546;9.896;2024-02-26T10:14:36;5.10;99.90
21115;DHT22;10715;48.546;9.896;2024-02-26T10:17:02;5.10;99.90
21115;DHT22;10715;48.546;9.896;2024-02-26T10:19:29;5.20;99.90
21115;DHT22;10715;48.546;9.896;2024-02-26T10:21:59;5.30;99.90
21115;DHT22;10715;48.546;9.896;2024-02-26T10:24:26;5.40;99.90
21115;DHT22;10715;48.546;9.896;2024-02-26T10:26:53;5.50;99.90
21115;DHT22;10715;48.546;9.896;2024-02-26T10:29:20;5.60;99.90
21115;DHT22;10715;48.546;9.896;2024-02-26T10:31:46;5.70;99.90
21115;DHT22;10715;48.546;9.896;2024-02-26T10:34:12;5.70;99.90
21115;DHT22;10715;48.546;9.896;2024-02-26T10:36:38;5.80;99.90
21115;DHT22;10715;48.546;9.896;2024-02-26T10:39:07;5.90;99.90
21115;DHT22;10715;48.546;9.896;2024-02-26T10:41:35;5.90;99.90
21115;DHT22;10715;48.546;9.896;2024-02-26T10:44:01;5.90;99.90
21115;DHT22;10715;48.546;9.896;2024-02-26T10:46:27;6.00;99.90
21115;DHT22;10715;48.546;9.896;2024-02-26T10:48:53;6.10;99.90
21115;DHT22;10715;48.546;9.896;2024-02-26T10:51:27;6.10;99.90
21115;DHT22;10715;48.546;9.896;2024-02-26T10:53:56;6.10;99.90
21115;DHT22;10715;48.546;9.896;2024-02-26T10:56:28;6.20;99.90
21115;DHT22;10715;48.546;9.896;2024-02-26T10:58:55;6.30;99.90
21115;DHT22;10715;48.546;9.896;2024-02-26T11:01:22;6.40;99.90
21115;DHT22;10715;48.546;9.896;2024-02-26T11:03:51;6.40;99.90
21115;DHT22;10715;48.546;9.896;2024-02-26T11:06:19;6.50;99.90
21115;DHT22;10715;48.546;9.896;2024-02-26T11:08:48;6.60;99.90
21115;DHT22;10715;48.546;9.896;2024-02-26T11:11:18;6.70;99.90
21115;DHT22;10715;48.546;9.896;2024-02-26T11:13:46;6.70;99.90
21115;DHT22;10715;48.546;9.896;2024-02-26T11:16:21;6.80;99.90
21115;DHT22;10715;48.546;9.896;2024-02-26T11:18:50;6.90;99.90
21115;DHT22;10715;48.546;9.896;2024-02-26T11:21:18;7.00;99.90
21115;DHT22;10715;48.546;9.896;2024-02-26T11:23:47;7.10;99.90
21115;DHT22;10715;48.546;9.896;2024-02-26T11:26:15;7.20;99.90
21115;DHT22;10715;48.546;9.896;2024-02-26T11:28:45;7.30;99.90
21115;DHT22;10715;48.546;9.896;2024-02-26T11:31:12;7.50;99.90
21115;DHT22;10715;48.546;9.896;2024-02-26T11:33:39;7.60;99.90
21115;DHT22;10715;48.546;9.896;2024-02-26T11:36:09;7.70;99.90
21115;DHT22;10715;48.546;9.896;2024-02-26T11:38:36;7.70;99.90
21115;DHT22;10715;48.546;9.896;2024-02-26T11:41:01;7.80;99.90
21115;DHT22;10715;48.546;9.896;2024-02-26T11:43:53;7.80;99.90
21115;DHT22;10715;48.546;9.896;2024-02-26T11:46:45;7.90;99.90
21115;DHT22;10715;48.546;9.896;2024-02-26T11:49:32;7.90;99.90
21115;DHT22;10715;48.546;9.896;2024-02-26T11:51:59;8.00;99.90
21115;DHT22;10715;48.546;9.896;2024-02-26T11:54:48;8.00;99.90
21115;DHT22;10715;48.546;9.896;2024-02-26T11:57:24;8.00;99.90
21115;DHT22;10715;48.546;9.896;2024-02-26T12:02:45;8.10;99.90
21115;DHT22;10715;48.546;9.896;2024-02-26T12:05:25;8.10;99.90
21115;DHT22;10715;48.546;9.896;2024-02-26T12:08:04;8.10;99.90
21115;DHT22;10715;48.546;9.896;2024-02-26T12:10:32;8.20;99.90
21115;DHT22;10715;48.546;9.896;2024-02-26T12:13:10;8.20;99.90
21115;DHT22;10715;48.546;9.896;2024-02-26T12:15:41;8.20;99.90
21115;DHT22;10715;48.546;9.896;2024-02-26T12:18:08;8.30;99.90
21115;DHT22;10715;48.546;9.896;2024-02-26T12:20:36;8.30;99.90
21115;DHT22;10715;48.546;9.896;2024-02-26T12:23:02;8.30;99.90
21115;DHT22;10715;48.546;9.896;2024-02-26T12:25:30;8.30;99.90
21115;DHT22;10715;48.546;9.896;2024-02-26T12:27:57;8.30;99.90
21115;DHT22;10715;48.546;9.896;2024-02-26T12:30:23;8.30;99.90
21115;DHT22;10715;48.546;9.896;2024-02-26T12:32:52;8.30;99.90
21115;DHT22;10715;48.546;9.896;2024-02-26T12:35:18;8.30;99.90
21115;DHT22;10715;48.546;9.896;2024-02-26T12:37:44;8.30;99.90
21115;DHT22;10715;48.546;9.896;2024-02-26T12:40:10;8.30;99.90
21115;DHT22;10715;48.546;9.896;2024-02-26T12:42:37;8.30;99.90
21115;DHT22;10715;48.546;9.896;2024-02-26T12:45:07;8.30;99.90
21115;DHT22;10715;48.546;9.896;2024-02-26T12:47:42;8.20;99.90
21115;DHT22;10715;48.546;9.896;2024-02-26T12:50:09;8.20;99.90
21115;DHT22;10715;48.546;9.896;2024-02-26T12:52:40;8.20;99.90
21115;DHT22;10715;48.546;9.896;2024-02-26T12:55:06;8.20;99.90
21115;DHT22;10715;48.546;9.896;2024-02-26T12:57:37;8.20;99.90
21115;DHT22;10715;48.546;9.896;2024-02-26T13:00:05;8.10;99.90
21115;DHT22;10715;48.546;9.896;2024-02-26T13:02:32;8.10;99.90
21115;DHT22;10715;48.546;9.896;2024-02-26T13:04:58;8.10;99.90
21115;DHT22;10715;48.546;9.896;2024-02-26T13:07:27;8.20;99.90
21115;DHT22;10715;48.546;9.896;2024-02-26T13:09:53;8.10;99.90
21115;DHT22;10715;48.546;9.896;2024-02-26T13:12:18;8.10;99.90
21115;DHT22;10715;48.546;9.896;2024-02-26T13:14:44;8.10;99.90
21115;DHT22;10715;48.546;9.896;2024-02-26T13:17:10;8.10;99.90
21115;DHT22;10715;48.546;9.896;2024-02-26T13:19:36;8.10;99.90
21115;DHT22;10715;48.546;9.896;2024-02-26T13:22:07;8.10;99.90
21115;DHT22;10715;48.546;9.896;2024-02-26T13:24:34;8.00;99.90
21115;DHT22;10715;48.546;9.896;2024-02-26T13:27:00;8.00;99.90
21115;DHT22;10715;48.546;9.896;2024-02-26T13:29:28;8.00;99.90
21115;DHT22;10715;48.546;9.896;2024-02-26T13:31:58;8.10;99.90
21115;DHT22;10715;48.546;9.896;2024-02-26T13:34:28;8.10;99.90
21115;DHT22;10715;48.546;9.896;2024-02-26T13:36:56;8.10;99.90
21115;DHT22;10715;48.546;9.896;2024-02-26T13:39:26;8.10;99.90
21115;DHT22;10715;48.546;9.896;2024-02-26T13:41:52;8.10;99.90
21115;DHT22;10715;48.546;9.896;2024-02-26T13:44:22;8.10;99.90
21115;DHT22;10715;48.546;9.896;2024-02-26T13:46:48;8.10;99.90
21115;DHT22;10715;48.546;9.896;2024-02-26T13:49:15;8.10;99.90
21115;DHT22;10715;48.546;9.896;2024-02-26T13:51:41;8.10;99.90
21115;DHT22;10715;48.546;9.896;2024-02-26T13:54:07;8.10;99.90
21115;DHT22;10715;48.546;9.896;2024-02-26T13:56:33;8.10;99.90
21115;DHT22;10715;48.546;9.896;2024-02-26T13:58:59;8.10;99.90
21115;DHT22;10715;48.546;9.896;2024-02-26T14:01:25;8.20;99.90
21115;DHT22;10715;48.546;9.896;2024-02-26T14:03:50;8.20;99.90
21115;DHT22;10715;48.546;9.896;2024-02-26T14:06:16;8.20;99.90
21115;DHT22;10715;48.546;9.896;2024-02-26T14:08:42;8.20;99.90
21115;DHT22;10715;48.546;9.896;2024-02-26T14:11:08;8.30;99.90
21115;DHT22;10715;48.546;9.896;2024-02-26T14:13:34;8.30;99.90
21115;DHT22;10715;48.546;9.896;2024-02-26T14:15:59;8.30;99.90
21115;DHT22;10715;48.546;9.896;2024-02-26T14:18:25;8.40;99.90
21115;DHT22;10715;48.546;9.896;2024-02-26T14:20:52;8.40;99.90
21115;DHT22;10715;48.546;9.896;2024-02-26T14:23:18;8.40;99.90
21115;DHT22;10715;48.546;9.896;2024-02-26T14:25:44;8.50;99.90
21115;DHT22;10715;48.546;9.896;2024-02-26T14:28:09;8.50;99.90
21115;DHT22;10715;48.546;9.896;2024-02-26T14:30:35;8.50;99.90
21115;DHT22;10715;48.546;9.896;2024-02-26T14:33:01;8.50;99.90
21115;DHT22;10715;48.546;9.896;2024-02-26T14:35:27;8.50;99.90
21115;DHT22;10715;48.546;9.896;2024-02-26T14:37:52;8.50;99.90
21115;DHT22;10715;48.546;9.896;2024-02-26T14:40:19;8.60;99.90
21115;DHT22;10715;48.546;9.896;2024-02-26T14:42:45;8.60;99.90
21115;DHT22;10715;48.546;9.896;2024-02-26T14:45:10;8.60;99.90
21115;DHT22;10715;48.546;9.896;2024-02-26T14:47:37;8.60;99.90
21115;DHT22;10715;48.546;9.896;2024-02-26T14:50:03;8.70;99.90
21115;DHT22;10715;48.546;9.896;2024-02-26T14:52:29;8.70;99.90
21115;DHT22;10715;48.546;9.896;2024-02-26T14:54:56;8.70;99.90
21115;DHT22;10715;48.546;9.896;2024-02-26T14:57:23;8.70;99.90
21115;DHT22;10715;48.546;9.896;2024-02-26T14:59:49;8.70;99.90
21115;DHT22;10715;48.546;9.896;2024-02-26T15:02:16;8.70;99.90
21115;DHT22;10715;48.546;9.896;2024-02-26T15:04:43;8.70;99.90
21115;DHT22;10715;48.546;9.896;2024-02-26T15:07:09;8.70;99.90
21115;DHT22;10715;48.546;9.896;2024-02-26T15:09:35;8.60;99.90
21115;DHT22;10715;48.546;9.896;2024-02-26T15:12:03;8.60;99.90
21115;DHT22;10715;48.546;9.896;2024-02-26T15:14:32;8.60;99.90
21115;DHT22;10715;48.546;9.896;2024-02-26T15:16:57;8.60;99.90
21115;DHT22;10715;48.546;9.896;2024-02-26T15:19:23;8.60;99.90
21115;DHT22;10715;48.546;9.896;2024-02-26T15:21:49;8.60;99.90
21115;DHT22;10715;48.546;9.896;2024-02-26T15:24:15;8.60;99.90
21115;DHT22;10715;48.546;9.896;2024-02-26T15:26:47;8.60;99.90
21115;DHT22;10715;48.546;9.896;2024-02-26T15:29:13;8.60;99.90
21115;DHT22;10715;48.546;9.896;2024-02-26T15:31:38;8.60;99.90
21115;DHT22;10715;48.546;9.896;2024-02-26T15:34:04;8.60;99.90
21115;DHT22;10715;48.546;9.896;2024-02-26T15:36:30;8.50;99.90
21115;DHT22;10715;48.546;9.896;2024-02-26T15:38:56;8.50;99.90
21115;DHT22;10715;48.546;9.896;2024-02-26T15:41:25;8.50;99.90
21115;DHT22;10715;48.546;9.896;2024-02-26T15:43:50;8.50;99.90
21115;DHT22;10715;48.546;9.896;2024-02-26T15:46:16;8.50;99.90
21115;DHT22;10715;48.546;9.896;2024-02-26T15:48:43;8.50;99.90